createdAt,value
2022-07-31T00:00:13.394Z,22.40
2022-07-31T00:02:40.182Z,22.40
2022-07-31T00:05:07.491Z,22.40
2022-07-31T00:07:34.427Z,22.40
2022-07-31T00:10:01.210Z,22.30
2022-07-31T00:12:28.031Z,22.30
2022-07-31T00:14:54.944Z,22.30
2022-07-31T00:17:21.995Z,22.30
2022-07-31T00:19:48.870Z,22.20
2022-07-31T00:22:15.636Z,22.20
2022-07-31T00:24:42.438Z,22.20
2022-07-31T00:27:10.802Z,22.20
2022-07-31T00:29:38.589Z,22.20
2022-07-31T00:32:06.091Z,22.10
2022-07-31T00:34:32.981Z,22.10
2022-07-31T00:37:00.047Z,22.10
2022-07-31T00:39:26.999Z,22.10
2022-07-31T00:41:55.076Z,22.10
2022-07-31T00:44:21.983Z,22.00
2022-07-31T00:46:50.046Z,22.00
2022-07-31T00:49:17.213Z,22.00
2022-07-31T00:51:44.072Z,22.00
2022-07-31T00:54:18.640Z,21.90
2022-07-31T00:56:50.568Z,22.00
2022-07-31T00:59:18.501Z,22.00
2022-07-31T01:01:51.921Z,21.90
2022-07-31T01:04:19.652Z,21.90
2022-07-31T01:06:47.613Z,21.90
2022-07-31T01:09:14.893Z,21.90
2022-07-31T01:12:13.106Z,21.90
2022-07-31T01:14:45.947Z,21.80
2022-07-31T01:17:13.825Z,21.80
2022-07-31T01:19:45.053Z,21.90
2022-07-31T01:22:39.646Z,21.80
2022-07-31T01:25:25.294Z,21.80
2022-07-31T01:28:15.756Z,21.80
2022-07-31T01:30:50.379Z,21.80
2022-07-31T01:33:23.271Z,21.80
2022-07-31T01:35:58.760Z,21.80
2022-07-31T01:38:35.566Z,21.80
2022-07-31T01:41:08.162Z,21.70
2022-07-31T01:43:40.008Z,21.80
2022-07-31T01:46:11.993Z,21.70
2022-07-31T01:48:39.820Z,21.80
2022-07-31T01:51:08.970Z,21.80
2022-07-31T01:53:39.023Z,21.90
2022-07-31T01:56:07.851Z,21.90
2022-07-31T01:58:39.952Z,21.90
2022-07-31T02:01:11.293Z,21.90
2022-07-31T02:03:43.950Z,21.80
2022-07-31T02:06:17.962Z,21.80
2022-07-31T02:08:47.471Z,21.80
2022-07-31T02:11:17.841Z,21.80
2022-07-31T02:13:46.476Z,21.70
2022-07-31T02:16:19.043Z,21.70
2022-07-31T02:18:48.400Z,21.70
2022-07-31T02:21:15.888Z,21.70
2022-07-31T02:23:42.834Z,21.70
2022-07-31T02:26:10.082Z,21.70
2022-07-31T02:28:40.779Z,21.60
2022-07-31T02:31:11.941Z,21.50
2022-07-31T02:33:40.799Z,21.50
2022-07-31T02:36:09.627Z,21.50
2022-07-31T02:38:37.404Z,21.40
2022-07-31T02:41:05.301Z,21.40
2022-07-31T02:43:35.240Z,21.40
2022-07-31T02:46:03.311Z,21.40
2022-07-31T02:48:31.048Z,21.40
2022-07-31T02:50:58.112Z,21.40
2022-07-31T02:53:25.806Z,21.40
2022-07-31T02:55:53.236Z,21.30
2022-07-31T02:58:20.066Z,21.30
2022-07-31T03:00:47.023Z,21.20
2022-07-31T03:03:13.993Z,21.10
2022-07-31T03:05:40.999Z,21.10
2022-07-31T03:08:07.757Z,21.00
2022-07-31T03:10:34.572Z,21.00
2022-07-31T03:13:02.760Z,21.00
2022-07-31T03:15:30.761Z,21.00
2022-07-31T03:17:58.486Z,20.90
2022-07-31T03:20:26.897Z,20.90
2022-07-31T03:22:54.028Z,20.90
2022-07-31T03:25:21.451Z,20.90
2022-07-31T03:27:55.513Z,20.90
2022-07-31T03:30:27.247Z,20.90
2022-07-31T03:35:27.164Z,21.00
2022-07-31T03:37:53.930Z,21.00
2022-07-31T03:40:21.352Z,21.00
2022-07-31T03:42:50.065Z,21.10
2022-07-31T03:45:17.549Z,21.10
2022-07-31T03:47:44.566Z,21.10
2022-07-31T03:50:11.607Z,21.10
2022-07-31T03:52:39.896Z,21.10
2022-07-31T03:55:10.144Z,21.00
2022-07-31T03:57:38.117Z,21.00
2022-07-31T04:00:05.713Z,20.90
2022-07-31T04:02:34.934Z,20.90
2022-07-31T04:05:05.727Z,20.90
2022-07-31T04:07:36.432Z,20.90
2022-07-31T04:10:03.908Z,20.90
2022-07-31T04:12:30.896Z,20.90
2022-07-31T04:14:57.705Z,20.90
2022-07-31T04:17:24.491Z,20.90
2022-07-31T04:19:51.294Z,20.90
2022-07-31T04:22:18.089Z,20.90
2022-07-31T04:24:44.925Z,20.90
2022-07-31T04:27:12.969Z,20.80
2022-07-31T04:29:39.952Z,20.90
2022-07-31T04:32:07.298Z,20.80
2022-07-31T04:34:34.371Z,20.90
2022-07-31T04:37:01.138Z,20.90
2022-07-31T04:39:28.062Z,20.80
2022-07-31T04:41:56.087Z,20.80
2022-07-31T04:44:23.272Z,20.80
2022-07-31T04:46:50.192Z,20.80
2022-07-31T04:49:17.167Z,20.80
2022-07-31T04:51:44.099Z,20.80
2022-07-31T04:54:11.437Z,20.80
2022-07-31T04:56:42.246Z,20.80
2022-07-31T04:59:13.849Z,20.90
2022-07-31T05:01:42.110Z,20.90
2022-07-31T05:04:10.562Z,20.90
2022-07-31T05:06:42.831Z,20.90
2022-07-31T05:09:18.407Z,20.90
2022-07-31T05:11:46.875Z,21.00
2022-07-31T05:14:16.629Z,21.00
2022-07-31T05:16:43.711Z,21.00
2022-07-31T05:19:13.700Z,20.90
2022-07-31T05:21:46.004Z,20.90
2022-07-31T05:24:32.498Z,20.90
2022-07-31T05:27:01.987Z,21.00
2022-07-31T05:29:29.218Z,20.90
2022-07-31T05:32:00.104Z,21.00
2022-07-31T05:34:37.483Z,21.00
2022-07-31T05:37:04.453Z,21.00
2022-07-31T05:39:31.466Z,21.00
2022-07-31T05:41:58.381Z,21.00
2022-07-31T05:44:25.211Z,21.10
2022-07-31T05:49:19.652Z,21.10
2022-07-31T05:51:46.947Z,21.00
2022-07-31T05:54:14.130Z,21.00
2022-07-31T05:56:40.947Z,21.00
2022-07-31T05:59:07.967Z,21.00
2022-07-31T06:01:34.867Z,21.00
2022-07-31T06:04:02.645Z,21.00
2022-07-31T06:06:29.529Z,21.00
2022-07-31T06:09:01.889Z,21.00
2022-07-31T06:11:30.847Z,21.00
2022-07-31T06:13:58.294Z,21.00
2022-07-31T06:16:25.039Z,21.00
2022-07-31T06:18:52.486Z,21.00
2022-07-31T06:23:45.225Z,21.10
2022-07-31T06:26:12.354Z,21.10
2022-07-31T06:28:48.112Z,21.10
2022-07-31T06:31:20.664Z,21.10
2022-07-31T06:33:48.869Z,21.10
2022-07-31T06:36:17.548Z,21.10
2022-07-31T06:38:44.474Z,21.10
2022-07-31T06:41:11.443Z,21.10
2022-07-31T06:43:38.311Z,21.10
2022-07-31T06:46:05.228Z,21.10
2022-07-31T06:48:32.023Z,21.10
2022-07-31T06:53:45.555Z,21.20
2022-07-31T06:56:12.335Z,21.20
2022-07-31T06:58:39.075Z,21.20
2022-07-31T07:01:05.952Z,21.20
2022-07-31T07:03:32.967Z,21.20
2022-07-31T07:05:59.986Z,21.30
2022-07-31T07:08:26.784Z,21.30
2022-07-31T07:10:53.656Z,21.40
2022-07-31T07:13:20.626Z,21.50
2022-07-31T07:15:49.287Z,21.50
2022-07-31T07:18:16.193Z,21.60
2022-07-31T07:20:43.005Z,21.60
2022-07-31T07:23:09.858Z,21.60
2022-07-31T07:25:36.830Z,21.70
2022-07-31T07:28:03.831Z,21.80
2022-07-31T07:30:30.689Z,21.80
2022-07-31T07:32:57.431Z,21.80
2022-07-31T07:35:24.195Z,21.80
2022-07-31T07:37:51.152Z,21.90
2022-07-31T07:40:20.655Z,21.90
2022-07-31T07:42:47.622Z,21.90
2022-07-31T07:45:15.244Z,22.00
2022-07-31T07:47:54.118Z,22.00
2022-07-31T07:50:29.182Z,22.10
2022-07-31T07:52:56.776Z,22.20
2022-07-31T07:55:23.784Z,22.20
2022-07-31T07:57:50.613Z,22.30
2022-07-31T08:00:17.604Z,22.30
2022-07-31T08:03:02.820Z,22.40
2022-07-31T08:05:35.998Z,22.40
2022-07-31T08:08:03.291Z,22.40
2022-07-31T08:10:30.254Z,22.40
2022-07-31T08:12:57.771Z,22.50
2022-07-31T08:15:25.808Z,22.50
2022-07-31T08:17:52.925Z,22.50
2022-07-31T08:20:20.295Z,22.50
2022-07-31T08:22:47.264Z,22.60
2022-07-31T08:25:15.103Z,22.60
2022-07-31T08:27:42.117Z,22.70
2022-07-31T08:30:09.981Z,22.70
2022-07-31T08:32:38.676Z,22.80
2022-07-31T08:35:06.091Z,22.90
2022-07-31T08:37:51.110Z,22.90
2022-07-31T08:40:20.894Z,23.00
2022-07-31T08:42:47.904Z,23.10
2022-07-31T08:45:15.256Z,23.10
2022-07-31T08:47:47.124Z,23.10
2022-07-31T08:50:18.197Z,23.10
2022-07-31T08:52:46.118Z,23.20
2022-07-31T08:55:24.833Z,23.20
2022-07-31T08:57:59.955Z,23.30
2022-07-31T09:00:28.846Z,23.30
2022-07-31T09:02:56.441Z,23.30
2022-07-31T09:05:25.091Z,23.40
2022-07-31T09:07:52.208Z,23.40
2022-07-31T09:10:27.772Z,23.50
2022-07-31T09:12:55.927Z,23.50
2022-07-31T09:15:27.747Z,23.60
2022-07-31T09:17:55.263Z,23.60
2022-07-31T09:20:26.895Z,23.60
2022-07-31T09:23:10.561Z,23.60
2022-07-31T09:25:37.515Z,23.70
2022-07-31T09:28:06.591Z,23.70
2022-07-31T09:30:34.362Z,23.80
2022-07-31T09:33:17.596Z,23.80
2022-07-31T09:35:52.022Z,23.80
2022-07-31T09:38:19.709Z,23.80
2022-07-31T09:40:57.706Z,23.80
2022-07-31T09:43:25.963Z,23.90
2022-07-31T09:46:00.262Z,24.00
2022-07-31T09:48:28.680Z,24.00
2022-07-31T09:51:00.079Z,24.00
2022-07-31T09:53:27.335Z,24.10
2022-07-31T09:55:56.816Z,24.10
2022-07-31T09:58:24.536Z,24.10
2022-07-31T10:00:54.455Z,24.20
2022-07-31T10:03:22.759Z,24.20
2022-07-31T10:05:50.231Z,24.30
2022-07-31T10:08:17.799Z,24.30
2022-07-31T10:10:46.564Z,24.30
2022-07-31T10:13:15.922Z,24.40
2022-07-31T10:15:47.434Z,24.50
2022-07-31T10:18:18.108Z,24.50
2022-07-31T10:21:04.511Z,24.60
2022-07-31T10:23:33.324Z,24.60
2022-07-31T10:26:02.377Z,24.70
2022-07-31T10:28:29.898Z,24.70
2022-07-31T10:30:57.274Z,24.70
2022-07-31T10:33:43.658Z,24.70
2022-07-31T10:36:22.610Z,24.70
2022-07-31T10:39:14.266Z,24.70
2022-07-31T10:42:00.014Z,24.70
2022-07-31T10:44:39.108Z,24.80
2022-07-31T10:47:17.807Z,24.80
2022-07-31T10:49:49.621Z,24.80
2022-07-31T10:52:30.693Z,24.80
2022-07-31T10:55:00.165Z,24.90
2022-07-31T10:57:34.789Z,24.90
2022-07-31T11:00:29.465Z,24.90
2022-07-31T11:02:57.309Z,25.00
2022-07-31T11:05:26.064Z,25.00
2022-07-31T11:08:04.386Z,25.00
2022-07-31T11:10:31.480Z,25.00
2022-07-31T11:13:10.859Z,25.10
2022-07-31T11:15:37.936Z,25.10
2022-07-31T11:18:25.740Z,25.20
2022-07-31T11:21:06.171Z,25.20
2022-07-31T11:23:56.491Z,25.20
2022-07-31T11:26:33.455Z,25.20
2022-07-31T11:29:58.785Z,25.20
2022-07-31T11:32:06.867Z,25.30
2022-07-31T11:34:45.850Z,25.30
2022-07-31T11:37:25.719Z,25.20
2022-07-31T11:39:54.383Z,25.30
2022-07-31T11:42:27.629Z,25.30
2022-07-31T11:45:10.840Z,25.40
2022-07-31T11:48:11.879Z,25.40
2022-07-31T11:50:39.047Z,25.40
2022-07-31T11:53:07.183Z,25.50
2022-07-31T11:55:52.059Z,25.50
2022-07-31T11:58:21.322Z,25.50
2022-07-31T12:00:53.340Z,25.60
2022-07-31T12:03:28.418Z,25.60
2022-07-31T12:05:55.984Z,25.60
2022-07-31T12:08:24.371Z,25.50
2022-07-31T12:10:56.399Z,25.40
2022-07-31T12:13:25.139Z,25.40
2022-07-31T12:16:11.366Z,25.40
2022-07-31T12:19:01.324Z,25.30
2022-07-31T12:21:33.331Z,25.40
2022-07-31T12:24:00.877Z,25.30
2022-07-31T12:26:29.704Z,25.20
2022-07-31T12:29:05.706Z,25.30
2022-07-31T12:31:48.073Z,25.30
2022-07-31T12:34:42.294Z,25.40
2022-07-31T12:37:14.230Z,25.40
2022-07-31T12:39:54.866Z,25.40
2022-07-31T12:42:32.390Z,25.40
2022-07-31T12:45:19.265Z,25.40
2022-07-31T12:47:51.770Z,25.40
2022-07-31T12:50:19.747Z,25.40
2022-07-31T12:52:46.654Z,25.50
2022-07-31T12:55:13.662Z,25.50
2022-07-31T12:57:51.079Z,25.50
2022-07-31T13:00:22.700Z,25.50
2022-07-31T13:02:50.666Z,25.60
2022-07-31T13:05:17.606Z,25.60
2022-07-31T13:07:44.468Z,25.60
2022-07-31T13:10:18.952Z,25.70
2022-07-31T13:12:50.499Z,25.70
2022-07-31T13:15:18.694Z,25.70
2022-07-31T13:17:50.190Z,25.80
2022-07-31T13:20:17.760Z,25.90
2022-07-31T13:22:44.617Z,25.90
2022-07-31T13:25:11.534Z,25.90
2022-07-31T13:27:38.427Z,25.90
2022-07-31T13:30:06.071Z,25.80
2022-07-31T13:32:33.234Z,25.80
2022-07-31T13:35:26.305Z,25.90
2022-07-31T13:37:47.667Z,25.90
2022-07-31T13:40:15.878Z,26.00
2022-07-31T13:42:42.698Z,25.90
2022-07-31T13:45:10.192Z,26.00
2022-07-31T13:47:51.413Z,26.00
2022-07-31T13:50:19.174Z,26.10
2022-07-31T13:52:46.172Z,26.10
2022-07-31T13:55:13.121Z,26.20
2022-07-31T13:57:39.952Z,26.30
2022-07-31T14:00:07.533Z,26.40
2022-07-31T14:02:34.400Z,26.60
2022-07-31T14:05:01.327Z,26.70
2022-07-31T14:07:48.461Z,26.90
2022-07-31T14:10:19.943Z,27.10
2022-07-31T14:12:47.467Z,27.30
2022-07-31T14:15:14.523Z,27.40
2022-07-31T14:17:41.382Z,27.50
2022-07-31T14:20:08.882Z,27.50
2022-07-31T14:22:35.834Z,27.40
2022-07-31T14:25:02.703Z,27.40
2022-07-31T14:27:30.013Z,27.40
2022-07-31T14:29:56.892Z,27.50
2022-07-31T14:32:25.167Z,27.70
2022-07-31T14:34:52.184Z,27.90
2022-07-31T14:37:20.445Z,28.20
2022-07-31T14:39:47.563Z,28.40
2022-07-31T14:42:14.589Z,28.60
2022-07-31T14:44:42.428Z,28.70
2022-07-31T14:47:12.537Z,28.80
2022-07-31T14:50:07.922Z,28.80
2022-07-31T14:52:28.243Z,28.70
2022-07-31T14:54:55.590Z,28.50
2022-07-31T14:57:22.723Z,28.40
2022-07-31T14:59:50.462Z,28.20
2022-07-31T15:02:22.142Z,28.00
2022-07-31T15:04:49.984Z,27.80
2022-07-31T15:10:08.413Z,27.60
2022-07-31T15:12:35.744Z,27.50
2022-07-31T15:15:02.850Z,27.40
2022-07-31T15:17:29.687Z,27.40
2022-07-31T15:19:56.481Z,27.30
2022-07-31T15:22:23.636Z,27.20
2022-07-31T15:24:50.555Z,27.30
2022-07-31T15:27:22.048Z,27.20
2022-07-31T15:30:05.865Z,27.20
2022-07-31T15:32:36.014Z,27.20
2022-07-31T15:35:03.750Z,27.20
2022-07-31T15:37:33.030Z,27.20
2022-07-31T15:40:02.421Z,27.10
2022-07-31T15:42:31.959Z,27.00
2022-07-31T15:44:58.888Z,26.90
2022-07-31T15:47:25.823Z,26.80
2022-07-31T15:49:52.658Z,26.80
2022-07-31T15:52:19.783Z,26.70
2022-07-31T15:54:47.230Z,26.70
2022-07-31T15:57:22.615Z,26.70
2022-07-31T15:59:50.769Z,26.60
2022-07-31T16:02:17.937Z,26.60
2022-07-31T16:04:53.409Z,26.60
2022-07-31T16:08:31.722Z,26.60
2022-07-31T16:10:15.620Z,26.60
2022-07-31T16:12:44.865Z,26.60
2022-07-31T16:15:12.644Z,26.60
2022-07-31T16:17:39.974Z,26.60
2022-07-31T16:20:09.930Z,26.50
2022-07-31T16:22:38.111Z,26.60
2022-07-31T16:25:05.923Z,26.60
2022-07-31T16:27:32.699Z,26.60
2022-07-31T16:30:02.063Z,26.50
2022-07-31T16:32:30.250Z,26.50
2022-07-31T16:35:01.049Z,26.50
2022-07-31T16:37:50.039Z,26.50
2022-07-31T16:40:28.174Z,26.60
2022-07-31T16:42:56.472Z,26.60
2022-07-31T16:45:23.911Z,26.50
2022-07-31T16:47:51.452Z,26.50
2022-07-31T16:50:18.924Z,26.40
2022-07-31T16:52:45.792Z,26.40
2022-07-31T16:55:12.571Z,26.40
2022-07-31T16:57:39.356Z,26.40
2022-07-31T17:00:07.096Z,26.40
2022-07-31T17:02:33.977Z,26.30
2022-07-31T17:05:00.767Z,26.30
2022-07-31T17:07:28.400Z,26.30
2022-07-31T17:09:55.193Z,26.30
2022-07-31T17:12:22.053Z,26.30
2022-07-31T17:14:49.171Z,26.30
2022-07-31T17:17:17.140Z,26.20
2022-07-31T17:19:46.576Z,26.20
2022-07-31T17:22:17.946Z,26.20
2022-07-31T17:24:51.122Z,26.20
2022-07-31T17:27:19.567Z,26.10
2022-07-31T17:29:46.440Z,26.10
2022-07-31T17:32:13.273Z,26.10
2022-07-31T17:34:40.836Z,26.10
2022-07-31T17:37:08.253Z,26.10
2022-07-31T17:39:36.062Z,26.10
2022-07-31T17:42:02.940Z,26.10
2022-07-31T17:44:29.753Z,26.10
2022-07-31T17:46:57.813Z,26.10
2022-07-31T17:49:25.418Z,26.10
2022-07-31T17:51:59.345Z,26.10
2022-07-31T17:54:27.741Z,26.10
2022-07-31T17:56:54.829Z,26.10
2022-07-31T17:59:23.010Z,26.10
2022-07-31T18:01:51.943Z,26.10
2022-07-31T18:04:21.334Z,26.00
2022-07-31T18:06:54.490Z,26.00
2022-07-31T18:09:23.483Z,26.00
2022-07-31T18:11:51.711Z,26.00
2022-07-31T18:14:18.916Z,26.00
2022-07-31T18:16:46.257Z,25.90
2022-07-31T18:19:13.468Z,25.90
2022-07-31T18:21:40.755Z,25.90
2022-07-31T18:24:08.138Z,25.90
2022-07-31T18:26:36.049Z,25.90
2022-07-31T18:29:02.973Z,25.80
2022-07-31T18:31:34.409Z,25.90
2022-07-31T18:34:06.250Z,25.80
2022-07-31T18:36:34.455Z,25.80
2022-07-31T18:39:01.483Z,25.80
2022-07-31T18:41:28.518Z,25.80
2022-07-31T18:43:55.792Z,25.80
2022-07-31T18:46:24.667Z,25.80
2022-07-31T18:48:55.426Z,25.70
2022-07-31T18:51:23.326Z,25.70
2022-07-31T18:53:50.426Z,25.70
2022-07-31T18:56:17.475Z,25.70
2022-07-31T18:58:44.704Z,25.70
2022-07-31T19:01:11.767Z,25.70
2022-07-31T19:03:38.611Z,25.60
2022-07-31T19:06:05.635Z,25.70
2022-07-31T19:08:32.537Z,25.60
2022-07-31T19:10:59.591Z,25.60
2022-07-31T19:13:26.519Z,25.60
2022-07-31T19:15:53.419Z,25.60
2022-07-31T19:18:26.371Z,25.60
2022-07-31T19:21:19.002Z,25.60
2022-07-31T19:23:43.837Z,25.60
2022-07-31T19:26:11.021Z,25.60
2022-07-31T19:28:39.656Z,25.60
2022-07-31T19:31:07.076Z,25.60
2022-07-31T19:33:33.945Z,25.60
2022-07-31T19:36:02.651Z,25.60
2022-07-31T19:38:31.762Z,25.60
2022-07-31T19:40:58.981Z,25.60
2022-07-31T19:43:26.093Z,25.60
2022-07-31T19:46:00.367Z,25.60
2022-07-31T19:48:40.473Z,25.50
2022-07-31T19:51:07.456Z,25.50
2022-07-31T19:53:34.222Z,25.50
2022-07-31T19:56:05.346Z,25.40
2022-07-31T19:58:34.312Z,25.50
2022-07-31T20:01:01.558Z,25.40
2022-07-31T20:03:28.468Z,25.40
2022-07-31T20:05:56.409Z,25.40
2022-07-31T20:08:23.897Z,25.40
2022-07-31T20:10:51.425Z,25.40
2022-07-31T20:13:18.690Z,25.40
2022-07-31T20:15:52.228Z,25.40
2022-07-31T20:18:28.321Z,25.40
2022-07-31T20:20:58.015Z,25.30
2022-07-31T20:23:25.795Z,25.30
2022-07-31T20:25:53.065Z,25.40
2022-07-31T20:28:19.981Z,25.30
2022-07-31T20:30:46.907Z,25.30
2022-07-31T20:33:13.741Z,25.30
2022-07-31T20:35:48.554Z,25.30
2022-07-31T20:38:20.382Z,25.30
2022-07-31T20:40:53.473Z,25.30
2022-07-31T20:43:29.264Z,25.30
2022-07-31T20:45:57.785Z,25.30
2022-07-31T20:48:31.367Z,25.20
2022-07-31T20:51:02.948Z,25.20
2022-07-31T20:53:30.262Z,25.20
2022-07-31T20:55:57.567Z,25.20
2022-07-31T20:58:25.319Z,25.20
2022-07-31T21:00:53.501Z,25.20
2022-07-31T21:03:20.544Z,25.20
2022-07-31T21:05:48.113Z,25.10
2022-07-31T21:08:15.881Z,25.20
2022-07-31T21:10:42.826Z,25.10
2022-07-31T21:13:09.760Z,25.10
2022-07-31T21:15:42.443Z,25.10
2022-07-31T21:18:18.538Z,25.10
2022-07-31T21:20:51.286Z,25.10
2022-07-31T21:23:22.645Z,25.10
2022-07-31T21:25:51.172Z,25.10
2022-07-31T21:28:18.503Z,25.10
2022-07-31T21:30:45.618Z,25.10
2022-07-31T21:33:12.714Z,25.10
2022-07-31T21:35:40.288Z,25.00
2022-07-31T21:38:11.820Z,25.10
2022-07-31T21:40:39.726Z,25.00
2022-07-31T21:43:06.937Z,25.00
2022-07-31T21:45:45.639Z,25.00
2022-07-31T21:48:23.352Z,25.00
2022-07-31T21:50:50.398Z,25.00
2022-07-31T21:53:17.170Z,25.00
2022-07-31T21:55:44.311Z,25.00
2022-07-31T21:58:11.323Z,25.00
2022-07-31T22:00:38.510Z,25.00
2022-07-31T22:03:05.972Z,25.00
2022-07-31T22:05:52.339Z,25.00
2022-07-31T22:08:19.485Z,25.00
2022-07-31T22:10:46.705Z,25.00
2022-07-31T22:13:13.570Z,24.90
2022-07-31T22:15:58.106Z,24.90
2022-07-31T22:18:32.366Z,24.90
2022-07-31T22:21:00.429Z,24.90
2022-07-31T22:23:27.863Z,24.90
2022-07-31T22:25:55.737Z,24.90
2022-07-31T22:28:24.416Z,24.90
2022-07-31T22:30:52.304Z,24.80
2022-07-31T22:33:19.975Z,24.80
2022-07-31T22:36:00.047Z,24.80
2022-07-31T22:38:29.370Z,24.70
2022-07-31T22:40:56.870Z,24.60
2022-07-31T22:44:11.996Z,24.60
2022-07-31T22:46:13.169Z,24.60
2022-07-31T22:48:40.969Z,24.50
2022-07-31T22:51:09.043Z,24.50
2022-07-31T22:53:37.716Z,24.40
2022-07-31T22:56:04.703Z,24.30
2022-07-31T22:58:31.529Z,24.30
2022-07-31T23:00:58.311Z,24.20
2022-07-31T23:03:25.162Z,24.20
2022-07-31T23:06:03.021Z,24.10
2022-07-31T23:08:38.917Z,24.10
2022-07-31T23:11:05.872Z,24.00
2022-07-31T23:13:32.626Z,24.00
2022-07-31T23:15:59.501Z,23.90
2022-07-31T23:18:26.571Z,23.90
2022-07-31T23:20:53.373Z,23.90
2022-07-31T23:23:21.430Z,23.80
2022-07-31T23:25:48.289Z,23.70
2022-07-31T23:28:15.081Z,23.70
2022-07-31T23:30:41.904Z,23.70
2022-07-31T23:33:08.650Z,23.60
2022-07-31T23:35:35.448Z,23.60
2022-07-31T23:38:02.260Z,23.60
2022-07-31T23:40:29.247Z,23.60
2022-07-31T23:42:56.024Z,23.50
2022-07-31T23:45:23.567Z,23.50
2022-07-31T23:47:50.597Z,23.50
2022-07-31T23:50:17.421Z,23.40
2022-07-31T23:52:44.794Z,23.30
2022-07-31T23:55:11.779Z,23.40
2022-07-31T23:57:39.561Z,23.40
